Details From SKMD - Medellin Olaya Herrera
To SKCG - RAFAEL NUNEZ
Flight Number -
Tags generated
Created
Modified
Stats Distance 254 nm / 470 km
Max Altitude 33,300 ft / 10,150 m
Waypoints 4
Social Downloads 0
Likes 0
Share VATSIM

Download

Looking for another format? Having issues loading an existing format? Contact us
Advertisement - Login to hide

Notes

Basic altitude profile: - Ascent Rate: 2500ft/min - Ascent Speed: 250kts - Cruise Altitude: 34000ft - Cruise Speed: 420kts - Descent Rate: 1500ft/min - Descent Speed: 250kts Options: - Use NATs: yes - Use PACOTS: yes - Use low airways: yes - Use high airways: yes

Route

SKMD BUTAL UG438 CTG SKCG

ID Type Via Altitude (ft/m) Position (lat/lon) Dist (leg/tot) Name
O SKMD APT - 0 / 0 6.21996 / -75.59052 - / 0 nm Medellin Olaya Herrera
BUTAL FIX - 33,300 / 10,150 7.85361 / -75.45722 98 / 98 nm
CTG VOR UG438 (AWY-HI) 24,500 / 7,468 10.20836 / -75.50608 141 / 239 nm CARTAGENA VOR-DME
O SKCG APT - 0 / 0 10.44238 / -75.51296 14 / 253 nm RAFAEL NUNEZ

Altitude Profile

Advertisement - Login to hide

Weather


0- 5 10 15 20 25 30 35+ Temperature / °C

Clouds and Precipitation
Forecast for 2019-04-25 18:00 UTC. Updated 6 hours ago

Ground ~20,000 ft ~40,000 ft Winds

SKMD

Details ICAO SKMD (EOH)
Name Medellin Olaya Herrera
Region Colombia
Timezone America/Bogota (UTC-5.0)
Stats Elevation 4,940 ft / 1,506 m (AMSL)
Location 6.219960° -75.590500°
Runways 1
Magnetic Variation 6.724° W

METAR

SKMD 252100Z 20004KT 9999 SCT033 SCT100 BKN200 24/17 A3006

Decode

TAF

Not found

Departure Runways

ID Width Length Bearing (true/mag) Surface Threshold Overrun Markings Lighting
02 148 ft / 45 m 8,324 ft / 2,537 m 10.66° / 17.38° ASPHALT 1,316 ft / 401 m 0 ft / 0 m APP
20 148 ft / 45 m 8,324 ft / 2,537 m 190.66° / 197.38° ASPHALT 1,012 ft / 308 m 0 ft / 0 m APP

SKCG

Details ICAO SKCG (CTG)
Name Rafael Nunez Airport
Region Colombia
Timezone America/Bogota (UTC-5.0)
Stats Elevation 1 ft / 0 m (AMSL)
Location 10.442100° -75.512900°
Runways 1
Magnetic Variation 7.382° W

METAR

SKCG 252100Z 35014KT 340V050 9999 FEW015TCU SCT200 32/24 A2977 RMK TCU/E

Decode

TAF

TAF SKCG 251630Z 2518/2618 32015KT 9999 FEW015 TEMPO 2521/2523 8000 TS SCT017CB BECMG 2602/2604 03005KT TEMPO 2610/2612 7000 VCFG SCT010 TX33/2518Z TN25/2611Z

Decode

Destination Runways

ID Width Length Bearing (true/mag) Surface Threshold Overrun Markings Lighting
01 148 ft / 45 m 8,341 ft / 2,542 m 2.33° / 9.71° ASPHALT 0 ft / 0 m 0 ft / 0 m PREC-APP CENTERLINE EDGE THRESHOLD MALSF
19 148 ft / 45 m 8,341 ft / 2,542 m 182.33° / 189.71° ASPHALT 0 ft / 0 m 0 ft / 0 m PREC-APP CENTERLINE EDGE THRESHOLD MALSF

Popular Alternatives